Time;durP1;ratioP1;P1;durP2;ratioP2;P2;SDS_P1;SDS_P2;PMS_P1;PMS_P2;Temp;Humidity;BMP_temperature;BMP_pressure;BME280_temperature;BME280_humidity;BME280_pressure;Samples;Min_cycle;Max_cycle;Signal;HPM_P1;HPM_P2
2022/08/11 00:02:23;;;;;;;2.20;1.50;;;;;;;;;;5082665;28;20103;-61
2022/08/11 00:04:50;;;;;;;4.80;1.48;;;;;;;;;;5086877;28;20025;-62
2022/08/11 00:07:16;;;;;;;5.40;1.70;;;;;;;;;;5090702;28;20020;-62
2022/08/11 00:09:42;;;;;;;5.18;2.47;;;;;;;;;;5086755;28;20029;-62
2022/08/11 00:12:13;;;;;;;4.75;1.60;;;;;;;;;;5072612;28;20035;-63
2022/08/11 00:14:39;;;;;;;2.90;1.45;;;;;;;;;;5085253;28;20038;-62
2022/08/11 00:17:07;;;;;;;3.83;1.75;;;;;;;;;;5090560;28;20040;-62
2022/08/11 00:19:59;;;;;;;9.75;1.92;;;;;;;;;;5075982;28;20027;-60
2022/08/11 00:22:28;;;;;;;2.13;1.65;;;;;;;;;;5087706;28;20074;-62
2022/08/11 00:24:55;;;;;;;4.80;1.63;;;;;;;;;;5090316;28;20549;-62
2022/08/11 00:27:30;;;;;;;3.00;1.33;;;;;;;;;;5089952;28;20036;-62
2022/08/11 00:29:57;;;;;;;5.72;2.25;;;;;;;;;;5087791;28;20396;-62
2022/08/11 00:32:23;;;;;;;4.53;1.50;;;;;;;;;;5087235;28;20532;-62
2022/08/11 00:34:49;;;;;;;3.00;1.48;;;;;;;;;;5072699;28;20028;-62
2022/08/11 00:37:20;;;;;;;4.15;1.70;;;;;;;;;;5073498;28;20034;-61
2022/08/11 00:39:48;;;;;;;4.43;1.73;;;;;;;;;;5081347;28;20047;-62
2022/08/11 00:42:23;;;;;;;5.00;1.45;;;;;;;;;;5082607;28;20035;-62
2022/08/11 00:45:00;;;;;;;4.90;1.77;;;;;;;;;;5090269;28;20436;-62
2022/08/11 00:47:34;;;;;;;5.00;1.83;;;;;;;;;;5093953;28;20077;-62
2022/08/11 00:50:03;;;;;;;3.65;2.00;;;;;;;;;;5093332;28;20012;-62
2022/08/11 00:52:38;;;;;;;2.25;1.52;;;;;;;;;;5092673;28;20024;-62
2022/08/11 00:55:32;;;;;;;2.88;1.60;;;;;;;;;;5080448;28;20432;-62
2022/08/11 00:58:17;;;;;;;3.40;1.52;;;;;;;;;;5085407;28;20404;-62
2022/08/11 01:01:00;;;;;;;3.28;1.70;;;;;;;;;;5078784;28;20131;-62
2022/08/11 01:03:41;;;;;;;3.38;1.70;;;;;;;;;;5092721;28;20440;-62
2022/08/11 01:06:28;;;;;;;5.65;1.88;;;;;;;;;;5082306;28;20038;-62
2022/08/11 01:09:12;;;;;;;4.47;1.90;;;;;;;;;;5086797;28;20441;-62
2022/08/11 01:11:57;;;;;;;2.97;2.00;;;;;;;;;;5092623;28;20504;-64
2022/08/11 01:14:32;;;;;;;3.25;1.77;;;;;;;;;;5093415;28;20055;-61
2022/08/11 01:17:03;;;;;;;3.63;2.08;;;;;;;;;;5084739;28;20042;-62
2022/08/11 01:19:35;;;;;;;3.20;2.53;;;;;;;;;;5092572;28;20020;-62
2022/08/11 01:22:22;;;;;;;5.47;1.92;;;;;;;;;;5081011;28;20107;-62
2022/08/11 01:24:59;;;;;;;3.15;2.20;;;;;;;;;;5093241;28;20364;-62
2022/08/11 01:27:43;;;;;;;3.13;1.70;;;;;;;;;;5091660;28;20057;-62
2022/08/11 01:30:17;;;;;;;4.15;1.73;;;;;;;;;;5089520;28;20802;-62
2022/08/11 01:32:46;;;;;;;6.18;1.95;;;;;;;;;;5092239;28;20032;-62
2022/08/11 01:35:31;;;;;;;3.58;1.90;;;;;;;;;;5087927;28;20446;-62
2022/08/11 01:38:12;;;;;;;3.50;1.85;;;;;;;;;;5088820;28;20475;-62
2022/08/11 01:40:56;;;;;;;3.20;1.88;;;;;;;;;;5091966;28;20483;-62
2022/08/11 01:46:44;;;;;;;5.93;1.98;;;;;;;;;;5059566;28;20046;-61
2022/08/11 01:49:17;;;;;;;3.38;1.30;;;;;;;;;;5082390;28;20786;-61
2022/08/11 01:52:02;;;;;;;5.55;2.45;;;;;;;;;;5087558;28;20632;-61
2022/08/11 01:54:32;;;;;;;4.30;2.35;;;;;;;;;;5084373;28;20036;-61
2022/08/11 01:57:14;;;;;;;3.75;2.08;;;;;;;;;;5084924;28;20076;-63
2022/08/11 02:00:03;;;;;;;4.75;2.05;;;;;;;;;;5086875;28;20031;-63
2022/08/11 02:02:46;;;;;;;3.47;2.22;;;;;;;;;;5092475;28;20028;-62
2022/08/11 02:05:31;;;;;;;6.07;1.92;;;;;;;;;;5084976;28;20035;-61
2022/08/11 02:08:23;;;;;;;2.92;1.77;;;;;;;;;;5085832;28;20028;-63
2022/08/11 02:13:59;;;;;;;3.22;2.17;;;;;;;;;;5083359;28;20040;-61
2022/08/11 02:16:44;;;;;;;5.57;2.35;;;;;;;;;;5084960;28;20024;-63
2022/08/11 02:25:12;;;;;;;3.20;2.05;;;;;;;;;;5077423;28;20058;-63
2022/08/11 02:27:43;;;;;;;4.32;1.80;;;;;;;;;;5090773;28;20034;-62
2022/08/11 02:30:16;;;;;;;8.07;2.38;;;;;;;;;;5085556;28;20605;-63
2022/08/11 02:35:57;;;;;;;8.35;2.03;;;;;;;;;;5083694;28;20038;-62
2022/08/11 02:38:42;;;;;;;7.32;2.20;;;;;;;;;;5087529;28;20209;-63
2022/08/11 02:44:12;;;;;;;9.55;2.80;;;;;;;;;;5085285;28;20039;-63
2022/08/11 02:46:49;;;;;;;3.47;2.00;;;;;;;;;;5084953;28;20484;-63
2022/08/11 02:52:22;;;;;;;5.15;2.25;;;;;;;;;;5077947;28;20075;-63
2022/08/11 02:55:08;;;;;;;4.43;2.03;;;;;;;;;;5082612;28;20443;-63
2022/08/11 02:57:40;;;;;;;4.43;2.40;;;;;;;;;;5076535;28;20504;-63
2022/08/11 03:00:08;;;;;;;5.88;2.50;;;;;;;;;;5079395;28;20484;-63
2022/08/11 03:02:44;;;;;;;9.88;1.90;;;;;;;;;;5088776;28;20069;-63
2022/08/11 03:05:10;;;;;;;3.53;1.98;;;;;;;;;;5077050;28;20484;-63
2022/08/11 03:07:39;;;;;;;5.80;2.22;;;;;;;;;;5079860;28;20111;-63
2022/08/11 03:10:12;;;;;;;8.20;1.88;;;;;;;;;;5090877;28;20024;-63
2022/08/11 03:18:45;;;;;;;3.53;2.05;;;;;;;;;;5086663;28;20035;-61
2022/08/11 03:21:21;;;;;;;3.50;2.08;;;;;;;;;;5083433;28;20648;-62
2022/08/11 03:23:50;;;;;;;4.95;2.00;;;;;;;;;;5087424;28;20444;-63
2022/08/11 03:26:23;;;;;;;15.13;2.90;;;;;;;;;;5089439;28;20058;-63
2022/08/11 03:29:06;;;;;;;4.68;2.03;;;;;;;;;;5081849;28;20028;-63
2022/08/11 03:31:37;;;;;;;4.40;2.20;;;;;;;;;;5088308;28;20024;-63
2022/08/11 03:34:06;;;;;;;4.15;2.20;;;;;;;;;;5091114;28;20429;-63
2022/08/11 03:36:35;;;;;;;5.78;2.20;;;;;;;;;;5090892;28;20055;-61
2022/08/11 03:39:01;;;;;;;4.63;2.60;;;;;;;;;;5084918;28;20024;-63
2022/08/11 03:41:44;;;;;;;5.20;2.00;;;;;;;;;;5082971;28;20035;-63
2022/08/11 03:44:36;;;;;;;7.72;2.15;;;;;;;;;;5090160;28;20024;-63
2022/08/11 03:47:23;;;;;;;5.70;2.22;;;;;;;;;;5058753;28;20561;-63
2022/08/11 03:49:49;;;;;;;6.20;2.30;;;;;;;;;;5086836;28;20120;-63
2022/08/11 03:52:34;;;;;;;6.78;2.10;;;;;;;;;;5090724;28;20032;-63
2022/08/11 03:55:09;;;;;;;4.65;2.50;;;;;;;;;;5089318;28;20472;-63
2022/08/11 03:57:35;;;;;;;6.28;2.58;;;;;;;;;;5083723;28;20057;-62
2022/08/11 04:00:16;;;;;;;7.13;2.47;;;;;;;;;;5074717;28;20472;-62
2022/08/11 04:03:01;;;;;;;4.90;2.03;;;;;;;;;;5089916;28;20105;-62
2022/08/11 04:05:37;;;;;;;8.73;2.42;;;;;;;;;;5090561;28;20099;-62
2022/08/11 04:08:10;;;;;;;3.13;1.90;;;;;;;;;;5090522;28;20028;-63
2022/08/11 04:10:48;;;;;;;5.72;2.92;;;;;;;;;;5090405;28;20032;-62
2022/08/11 04:13:34;;;;;;;6.95;2.22;;;;;;;;;;5087609;28;20073;-61
2022/08/11 04:16:03;;;;;;;4.13;1.98;;;;;;;;;;5090784;28;20028;-62
2022/08/11 04:18:48;;;;;;;5.95;2.05;;;;;;;;;;5087042;28;20020;-63
2022/08/11 04:21:33;;;;;;;5.50;2.20;;;;;;;;;;5086857;28;20111;-62
2022/08/11 04:24:08;;;;;;;6.80;2.15;;;;;;;;;;5091553;28;20040;-62
2022/08/11 04:26:37;;;;;;;5.10;2.10;;;;;;;;;;5080935;28;20050;-62
2022/08/11 04:29:06;;;;;;;4.10;2.45;;;;;;;;;;5091146;28;20024;-62
2022/08/11 04:31:38;;;;;;;5.55;2.40;;;;;;;;;;5094151;28;20023;-62
2022/08/11 04:34:33;;;;;;;10.88;3.08;;;;;;;;;;5092809;28;20515;-62
2022/08/11 04:39:59;;;;;;;4.70;2.50;;;;;;;;;;5086131;28;21481;-62
2022/08/11 04:45:29;;;;;;;4.43;2.38;;;;;;;;;;5085788;28;20063;-63
2022/08/11 05:03:04;;;;;;;4.95;2.20;;;;;;;;;;5084786;28;20066;-60
2022/08/11 05:05:33;;;;;;;5.40;2.30;;;;;;;;;;5093616;28;20073;-62
2022/08/11 05:08:13;;;;;;;4.93;2.67;;;;;;;;;;5093136;28;20383;-62
2022/08/11 05:10:47;;;;;;;6.85;2.53;;;;;;;;;;5077249;28;20032;-62
2022/08/11 05:36:49;;;;;;;4.38;2.70;;;;;;;;;;5091664;28;20142;-63
2022/08/11 05:58:41;;;;;;;5.80;2.60;;;;;;;;;;5079296;28;20522;-62
2022/08/11 06:01:07;;;;;;;10.07;2.88;;;;;;;;;;5084199;28;20103;-62
2022/08/11 06:04:13;;;;;;;6.32;2.75;;;;;;;;;;5092533;28;20032;-62
2022/08/11 06:06:24;;;;;;;6.72;2.67;;;;;;;;;;5087103;28;20083;-63
2022/08/11 06:08:54;;;;;;;6.60;2.88;;;;;;;;;;5073321;28;20439;-62
2022/08/11 06:11:21;;;;;;;6.55;2.53;;;;;;;;;;5089040;28;20073;-62
2022/08/11 06:13:47;;;;;;;5.18;2.92;;;;;;;;;;5083612;28;20123;-62
2022/08/11 06:16:21;;;;;;;8.10;3.42;;;;;;;;;;5088841;28;20529;-62
2022/08/11 06:18:47;;;;;;;5.03;2.58;;;;;;;;;;5090238;28;20467;-62
2022/08/11 06:21:14;;;;;;;5.60;2.95;;;;;;;;;;5085555;28;20100;-62
2022/08/11 06:23:41;;;;;;;9.45;2.95;;;;;;;;;;5070763;28;20027;-62
2022/08/11 06:26:08;;;;;;;8.32;3.17;;;;;;;;;;5084800;28;20082;-62
2022/08/11 06:28:38;;;;;;;5.93;2.90;;;;;;;;;;5089930;28;20783;-62
2022/08/11 06:31:17;;;;;;;6.85;2.67;;;;;;;;;;5090175;28;20024;-62
2022/08/11 06:34:01;;;;;;;4.93;2.83;;;;;;;;;;5088935;28;20020;-62
2022/08/11 06:36:34;;;;;;;4.85;2.60;;;;;;;;;;5080508;28;20030;-62
2022/08/11 06:39:06;;;;;;;3.55;2.30;;;;;;;;;;5092168;28;20050;-62
2022/08/11 06:41:44;;;;;;;4.50;2.80;;;;;;;;;;5083661;28;20015;-62
2022/08/11 06:44:15;;;;;;;5.18;2.80;;;;;;;;;;5088233;28;20032;-62
2022/08/11 06:46:49;;;;;;;6.60;2.83;;;;;;;;;;5090154;28;20475;-63
2022/08/11 06:52:06;;;;;;;9.48;3.03;;;;;;;;;;5087723;28;20047;-62
2022/08/11 06:54:40;;;;;;;6.18;3.00;;;;;;;;;;5088958;28;20051;-62
2022/08/11 07:02:42;;;;;;;9.43;2.70;;;;;;;;;;5090482;28;20078;-62
2022/08/11 07:05:20;;;;;;;9.43;3.38;;;;;;;;;;5089449;28;20039;-62
2022/08/11 07:16:47;;;;;;;5.13;2.50;;;;;;;;;;5088440;28;20407;-62
2022/08/11 07:30:28;;;;;;;8.40;2.83;;;;;;;;;;5080134;28;20070;-60
2022/08/11 07:32:55;;;;;;;4.10;2.25;;;;;;;;;;5080623;28;20016;-62
2022/08/11 07:35:27;;;;;;;4.57;2.42;;;;;;;;;;5071015;28;20108;-62
2022/08/11 07:37:57;;;;;;;6.32;2.50;;;;;;;;;;5071173;28;20028;-62
2022/08/11 07:40:23;;;;;;;4.85;2.33;;;;;;;;;;5073591;28;20496;-62
2022/08/11 07:42:50;;;;;;;6.35;2.45;;;;;;;;;;5090967;28;20066;-62
2022/08/11 07:53:32;;;;;;;8.70;1.90;;;;;;;;;;5081634;28;20094;-62
2022/08/11 07:56:00;;;;;;;6.47;2.20;;;;;;;;;;5083662;28;20052;-62
2022/08/11 08:17:52;;;;;;;3.47;2.00;;;;;;;;;;5088414;28;20083;-61
2022/08/11 08:20:20;;;;;;;7.10;2.00;;;;;;;;;;5091371;28;20493;-61
2022/08/11 08:22:51;;;;;;;4.93;1.80;;;;;;;;;;5087091;28;20029;-61
2022/08/11 08:25:18;;;;;;;4.28;1.70;;;;;;;;;;5086448;28;20052;-62
2022/08/11 08:27:44;;;;;;;4.57;2.15;;;;;;;;;;5084290;28;20024;-61
2022/08/11 08:32:57;;;;;;;8.77;1.80;;;;;;;;;;5093721;28;20102;-61
2022/08/11 08:35:24;;;;;;;3.72;2.00;;;;;;;;;;5090917;28;20059;-62
2022/08/11 08:37:51;;;;;;;4.32;2.30;;;;;;;;;;5090504;28;20638;-62
2022/08/11 08:40:17;;;;;;;5.82;1.98;;;;;;;;;;5088270;28;20028;-61
2022/08/11 08:42:53;;;;;;;5.22;2.33;;;;;;;;;;5094052;28;20020;-62
2022/08/11 08:45:20;;;;;;;7.22;2.28;;;;;;;;;;5086761;28;20024;-61
2022/08/11 08:47:48;;;;;;;3.33;1.65;;;;;;;;;;5092836;28;20035;-61
2022/08/11 08:50:20;;;;;;;3.63;2.10;;;;;;;;;;5093235;28;20442;-61
2022/08/11 08:52:49;;;;;;;5.07;1.90;;;;;;;;;;5083705;28;20020;-61
2022/08/11 08:55:17;;;;;;;7.97;1.88;;;;;;;;;;5084376;28;20558;-61
2022/08/11 08:57:44;;;;;;;3.33;1.90;;;;;;;;;;5080820;28;20496;-61
2022/08/11 09:00:13;;;;;;;6.22;1.80;;;;;;;;;;5091154;28;20028;-62
2022/08/11 09:02:39;;;;;;;3.47;1.63;;;;;;;;;;5084373;28;20039;-61
2022/08/11 09:05:07;;;;;;;2.40;1.95;;;;;;;;;;5087365;28;20042;-62
2022/08/11 09:07:34;;;;;;;3.15;1.75;;;;;;;;;;5090639;28;20026;-61
2022/08/11 09:10:00;;;;;;;6.20;1.77;;;;;;;;;;5083579;28;20487;-61
2022/08/11 09:12:27;;;;;;;5.43;2.03;;;;;;;;;;5088101;28;20031;-61
2022/08/11 09:14:59;;;;;;;3.63;1.90;;;;;;;;;;5090891;28;20110;-61
2022/08/11 09:17:29;;;;;;;3.00;1.67;;;;;;;;;;5093576;28;20044;-61
2022/08/11 09:20:08;;;;;;;9.88;1.92;;;;;;;;;;5081867;28;20064;-62
2022/08/11 09:28:11;;;;;;;3.55;1.88;;;;;;;;;;5089924;28;20050;-62
2022/08/11 09:30:40;;;;;;;9.38;2.20;;;;;;;;;;5080549;28;20033;-61
2022/08/11 09:33:06;;;;;;;4.20;1.63;;;;;;;;;;5080062;28;20138;-62
2022/08/11 09:35:37;;;;;;;5.85;2.00;;;;;;;;;;5092126;28;20066;-61
2022/08/11 09:40:50;;;;;;;3.70;1.50;;;;;;;;;;5091071;28;20449;-61
2022/08/11 09:46:02;;;;;;;3.13;1.35;;;;;;;;;;5082231;28;20561;-61
2022/08/11 09:48:30;;;;;;;5.25;2.13;;;;;;;;;;5082367;28;20039;-62
2022/08/11 09:51:00;;;;;;;9.05;1.90;;;;;;;;;;5087940;28;20437;-61
2022/08/11 09:53:27;;;;;;;6.78;1.88;;;;;;;;;;5092785;28;20383;-62
2022/08/11 09:55:54;;;;;;;4.25;1.70;;;;;;;;;;5090916;28;20048;-61
2022/08/11 09:58:23;;;;;;;3.40;1.65;;;;;;;;;;5090960;28;20028;-62
2022/08/11 10:00:49;;;;;;;4.75;1.90;;;;;;;;;;5082231;28;20034;-62
2022/08/11 10:03:17;;;;;;;4.80;2.40;;;;;;;;;;5082583;28;20542;-61
2022/08/11 10:08:32;;;;;;;2.92;1.63;;;;;;;;;;5086607;28;20446;-61
2022/08/11 10:10:58;;;;;;;4.03;1.70;;;;;;;;;;5077330;28;20032;-62
2022/08/11 10:13:33;;;;;;;4.28;1.55;;;;;;;;;;5080273;28;20064;-61
2022/08/11 10:16:02;;;;;;;2.22;1.48;;;;;;;;;;5081488;28;20111;-61
2022/08/11 10:18:50;;;;;;;5.43;1.55;;;;;;;;;;5087839;28;20036;-61
2022/08/11 10:21:35;;;;;;;10.05;1.80;;;;;;;;;;5087757;28;20032;-61
2022/08/11 10:26:59;;;;;;;3.38;1.40;;;;;;;;;;5087817;28;20043;-62
2022/08/11 10:35:11;;;;;;;12.52;2.00;;;;;;;;;;5082171;28;20530;-61
2022/08/11 10:37:37;;;;;;;5.18;1.63;;;;;;;;;;5086765;28;20035;-61
2022/08/11 10:40:08;;;;;;;4.95;1.65;;;;;;;;;;5085035;28;20118;-61
2022/08/11 10:48:05;;;;;;;2.10;1.30;;;;;;;;;;5082650;28;20035;-62
2022/08/11 10:58:50;;;;;;;3.63;1.30;;;;;;;;;;5089606;28;20043;-60
2022/08/11 11:01:25;;;;;;;3.95;1.40;;;;;;;;;;5088605;28;20032;-59
2022/08/11 11:03:54;;;;;;;2.78;1.40;;;;;;;;;;5087038;28;20042;-59
2022/08/11 11:06:43;;;;;;;3.83;1.13;;;;;;;;;;5083855;28;20058;-59
2022/08/11 11:09:18;;;;;;;6.15;1.35;;;;;;;;;;5087059;28;20179;-61
2022/08/11 11:20:29;;;;;;;3.45;1.55;;;;;;;;;;5083802;28;20062;-61
2022/08/11 11:22:56;;;;;;;5.32;2.00;;;;;;;;;;5089680;28;20039;-61
2022/08/11 11:25:38;;;;;;;3.05;1.40;;;;;;;;;;5089803;28;20032;-61
2022/08/11 11:28:27;;;;;;;1.90;1.15;;;;;;;;;;5087246;28;20074;-62
2022/08/11 11:31:06;;;;;;;3.72;1.55;;;;;;;;;;5089007;28;20035;-62
2022/08/11 11:33:59;;;;;;;2.45;1.40;;;;;;;;;;5086649;28;20467;-62
2022/08/11 11:36:40;;;;;;;3.20;1.52;;;;;;;;;;5090001;28;20051;-62
2022/08/11 11:39:07;;;;;;;5.72;1.60;;;;;;;;;;5086212;28;20043;-61
2022/08/11 11:41:34;;;;;;;3.28;1.35;;;;;;;;;;5089229;28;20036;-62
2022/08/11 11:44:00;;;;;;;8.07;1.15;;;;;;;;;;5082486;28;20029;-62
2022/08/11 11:46:27;;;;;;;2.97;1.60;;;;;;;;;;5084066;28;20024;-62
2022/08/11 11:48:54;;;;;;;4.20;1.38;;;;;;;;;;5089321;28;20056;-62
2022/08/11 11:51:21;;;;;;;3.90;1.70;;;;;;;;;;5090358;28;20028;-61
2022/08/11 11:53:48;;;;;;;2.95;1.20;;;;;;;;;;5090703;28;20027;-61
2022/08/11 11:56:14;;;;;;;4.22;1.30;;;;;;;;;;5090692;28;20495;-62
2022/08/11 12:01:26;;;;;;;3.00;1.73;;;;;;;;;;5087420;28;20468;-61
2022/08/11 12:03:53;;;;;;;3.10;1.50;;;;;;;;;;5084110;28;20025;-61
2022/08/11 12:06:21;;;;;;;2.17;1.33;;;;;;;;;;5082941;28;20383;-62
2022/08/11 12:08:48;;;;;;;4.20;1.40;;;;;;;;;;5089995;28;20039;-61
2022/08/11 12:14:02;;;;;;;2.42;1.52;;;;;;;;;;5091172;28;20047;-59
2022/08/11 12:16:28;;;;;;;5.18;1.40;;;;;;;;;;5086497;28;20039;-59
2022/08/11 12:18:56;;;;;;;1.67;1.05;;;;;;;;;;5089990;28;20214;-59
2022/08/11 12:21:23;;;;;;;3.90;1.40;;;;;;;;;;5090418;28;20582;-62
2022/08/11 12:29:20;;;;;;;3.63;1.23;;;;;;;;;;5077235;28;20047;-62
2022/08/11 12:31:46;;;;;;;3.38;1.65;;;;;;;;;;5078444;28;20384;-59
2022/08/11 12:34:13;;;;;;;6.45;1.27;;;;;;;;;;5090578;28;20527;-59
2022/08/11 12:36:56;;;;;;;4.30;1.10;;;;;;;;;;5089074;28;20028;-59
2022/08/11 12:53:22;;;;;;;2.58;1.35;;;;;;;;;;5092449;28;20502;-59
2022/08/11 12:58:34;;;;;;;4.28;1.30;;;;;;;;;;5087487;28;20453;-60
2022/08/11 13:06:30;;;;;;;3.78;1.13;;;;;;;;;;5090780;28;20035;-60
2022/08/11 13:08:57;;;;;;;6.40;1.85;;;;;;;;;;5093000;28;20092;-60
2022/08/11 13:14:08;;;;;;;3.00;1.10;;;;;;;;;;5083307;28;20039;-60
2022/08/11 13:17:19;;;;;;;3.75;1.45;;;;;;;;;;5079488;28;20027;-60
2022/08/11 13:19:21;;;;;;;1.90;1.08;;;;;;;;;;5093190;28;20039;-60
2022/08/11 13:21:48;;;;;;;2.75;1.00;;;;;;;;;;5087993;28;20036;-60
2022/08/11 13:24:14;;;;;;;6.95;1.42;;;;;;;;;;5076943;28;20803;-60
2022/08/11 13:26:42;;;;;;;2.72;1.10;;;;;;;;;;5084528;28;20079;-60
2022/08/11 13:29:09;;;;;;;2.40;1.40;;;;;;;;;;5087113;28;20100;-60
2022/08/11 13:31:35;;;;;;;3.20;1.20;;;;;;;;;;5086303;28;20031;-59
2022/08/11 13:34:02;;;;;;;2.83;1.17;;;;;;;;;;5087741;28;20418;-60
2022/08/11 13:36:28;;;;;;;4.70;1.40;;;;;;;;;;5082169;28;20149;-59
2022/08/11 13:38:57;;;;;;;3.70;1.27;;;;;;;;;;5085247;28;20070;-59
2022/08/11 13:41:40;;;;;;;3.42;1.13;;;;;;;;;;5076523;28;20036;-60
2022/08/11 13:44:07;;;;;;;1.70;1.00;;;;;;;;;;5088207;28;20043;-59
2022/08/11 13:46:33;;;;;;;4.80;1.25;;;;;;;;;;5084375;28;20039;-59
2022/08/11 13:49:00;;;;;;;2.90;1.15;;;;;;;;;;5082429;28;20459;-59
2022/08/11 13:51:29;;;;;;;1.77;0.98;;;;;;;;;;5084286;28;20036;-59
2022/08/11 13:53:55;;;;;;;9.68;1.73;;;;;;;;;;5078077;28;20099;-59
2022/08/11 13:56:22;;;;;;;2.15;0.98;;;;;;;;;;5079619;28;20552;-59
2022/08/11 13:58:49;;;;;;;3.72;1.13;;;;;;;;;;5090440;28;20024;-59
2022/08/11 14:01:15;;;;;;;4.05;1.10;;;;;;;;;;5082172;28;20036;-59
2022/08/11 14:03:42;;;;;;;3.30;1.13;;;;;;;;;;5080981;28;20034;-60
2022/08/11 14:06:08;;;;;;;7.47;1.02;;;;;;;;;;5081477;28;20028;-59
2022/08/11 14:08:37;;;;;;;5.45;1.08;;;;;;;;;;5091150;28;20074;-60
2022/08/11 14:13:50;;;;;;;4.25;1.10;;;;;;;;;;5084831;28;20039;-59
2022/08/11 14:16:17;;;;;;;3.70;1.20;;;;;;;;;;5078630;28;20486;-59
2022/08/11 14:18:47;;;;;;;2.33;1.00;;;;;;;;;;5092315;28;20034;-60
2022/08/11 14:24:03;;;;;;;1.95;0.95;;;;;;;;;;5080897;28;20086;-60
2022/08/11 14:26:35;;;;;;;3.30;0.90;;;;;;;;;;5092227;28;20118;-60
2022/08/11 14:29:04;;;;;;;5.30;1.10;;;;;;;;;;5072669;28;20082;-60
2022/08/11 14:31:31;;;;;;;4.93;0.88;;;;;;;;;;5087294;28;20024;-60
2022/08/11 14:34:01;;;;;;;3.08;0.93;;;;;;;;;;5083445;28;20477;-60
2022/08/11 14:36:29;;;;;;;2.47;0.88;;;;;;;;;;5087886;28;20039;-60
2022/08/11 14:38:55;;;;;;;3.65;0.90;;;;;;;;;;5084018;28;20021;-60
2022/08/11 14:47:05;;;;;;;3.25;0.90;;;;;;;;;;5084840;28;20042;-60
2022/08/11 14:49:38;;;;;;;4.18;1.00;;;;;;;;;;5091395;28;20602;-60
2022/08/11 14:52:06;;;;;;;5.53;1.00;;;;;;;;;;5083217;28;20660;-60
2022/08/11 14:57:18;;;;;;;4.13;0.80;;;;;;;;;;5090761;28;20136;-61
2022/08/11 14:59:48;;;;;;;1.27;0.52;;;;;;;;;;5090629;28;20121;-60
2022/08/11 15:05:01;;;;;;;4.10;0.73;;;;;;;;;;5079364;28;20043;-60
2022/08/11 15:07:30;;;;;;;4.68;0.80;;;;;;;;;;5090835;28;20032;-60
2022/08/11 15:09:58;;;;;;;5.22;0.98;;;;;;;;;;5088707;28;20050;-61
2022/08/11 15:12:24;;;;;;;3.88;0.70;;;;;;;;;;5083496;28;20066;-60
2022/08/11 15:17:36;;;;;;;4.00;0.90;;;;;;;;;;5088957;28;20032;-61
2022/08/11 15:25:42;;;;;;;4.40;0.80;;;;;;;;;;5090150;28;20094;-61
2022/08/11 15:39:26;;;;;;;1.83;0.73;;;;;;;;;;5087098;28;20085;-61
2022/08/11 15:47:28;;;;;;;2.90;0.73;;;;;;;;;;5088736;28;20042;-61
2022/08/11 15:49:56;;;;;;;3.05;0.70;;;;;;;;;;5089352;28;20043;-61
2022/08/11 15:52:26;;;;;;;7.93;0.93;;;;;;;;;;5089884;28;20028;-60
2022/08/11 15:54:52;;;;;;;11.82;1.00;;;;;;;;;;5089623;28;20024;-61
2022/08/11 16:05:36;;;;;;;4.18;1.33;;;;;;;;;;5080264;28;20035;-60
2022/08/11 16:08:02;;;;;;;3.90;0.82;;;;;;;;;;5078698;28;20190;-63
2022/08/11 16:10:28;;;;;;;7.32;1.17;;;;;;;;;;5086611;28;20044;-62
2022/08/11 16:18:15;;;;;;;3.67;0.98;;;;;;;;;;5074067;28;20550;-60
2022/08/11 16:20:43;;;;;;;11.02;1.00;;;;;;;;;;5083199;28;20109;-62
2022/08/11 16:23:09;;;;;;;20.48;2.50;;;;;;;;;;5092209;28;20028;-63
2022/08/11 16:25:35;;;;;;;9.57;0.90;;;;;;;;;;5094492;28;20032;-63
2022/08/11 16:28:06;;;;;;;3.92;1.20;;;;;;;;;;5083842;28;20089;-63
2022/08/11 16:30:34;;;;;;;13.98;1.27;;;;;;;;;;5089096;28;20380;-62
2022/08/11 16:33:00;;;;;;;2.22;1.00;;;;;;;;;;5094280;28;20538;-62
2022/08/11 16:40:58;;;;;;;9.57;1.25;;;;;;;;;;5086569;28;20055;-63
2022/08/11 16:48:57;;;;;;;3.13;0.73;;;;;;;;;;5085497;28;20047;-62
2022/08/11 16:51:23;;;;;;;4.45;1.27;;;;;;;;;;5092258;28;20028;-62
2022/08/11 16:53:49;;;;;;;2.38;0.80;;;;;;;;;;5084978;28;20032;-62
2022/08/11 16:56:18;;;;;;;5.65;0.93;;;;;;;;;;5091517;28;20048;-62
2022/08/11 17:01:32;;;;;;;1.08;0.80;;;;;;;;;;5084905;28;20147;-62
2022/08/11 17:13:07;;;;;;;2.90;1.00;;;;;;;;;;5087030;28;20109;-62
2022/08/11 17:18:10;;;;;;;3.67;1.00;;;;;;;;;;5086315;28;20068;-61
2022/08/11 17:20:37;;;;;;;2.38;1.00;;;;;;;;;;5083006;28;20039;-62
2022/08/11 17:25:49;;;;;;;10.70;1.50;;;;;;;;;;5089089;28;20028;-62
2022/08/11 17:28:16;;;;;;;4.57;0.80;;;;;;;;;;5093096;28;20028;-62
2022/08/11 17:36:15;;;;;;;2.80;0.98;;;;;;;;;;5091315;28;20035;-62
2022/08/11 17:38:42;;;;;;;2.65;0.82;;;;;;;;;;5092807;28;20434;-61
2022/08/11 17:49:25;;;;;;;1.88;1.00;;;;;;;;;;5088861;28;20039;-62
2022/08/11 18:00:08;;;;;;;3.72;0.98;;;;;;;;;;5088610;28;20054;-62
2022/08/11 18:05:24;;;;;;;6.43;1.30;;;;;;;;;;5086780;28;20046;-62
